sensor_id;sensor_type;location;lat;lon;timestamp;pressure;altitude;pressure_sealevel;temperature;humidity
43503;BME280;29098;48.184;16.298;2023-01-16T00:00:25;98694.22;;;5.41;94.53
43503;BME280;29098;48.184;16.298;2023-01-16T00:02:51;98684.56;;;5.33;94.97
43503;BME280;29098;48.184;16.298;2023-01-16T00:05:16;98683.28;;;5.37;95.16
43503;BME280;29098;48.184;16.298;2023-01-16T00:07:41;98676.25;;;5.29;95.10
43503;BME280;29098;48.184;16.298;2023-01-16T00:10:07;98674.59;;;5.37;95.45
43503;BME280;29098;48.184;16.298;2023-01-16T00:12:33;98668.25;;;5.39;95.49
43503;BME280;29098;48.184;16.298;2023-01-16T00:14:58;98664.97;;;5.37;95.54
43503;BME280;29098;48.184;16.298;2023-01-16T00:17:23;98656.94;;;5.39;96.25
43503;BME280;29098;48.184;16.298;2023-01-16T00:19:49;98657.13;;;5.37;95.87
43503;BME280;29098;48.184;16.298;2023-01-16T00:22:14;98657.94;;;5.38;96.23
43503;BME280;29098;48.184;16.298;2023-01-16T00:24:39;98652.56;;;5.39;95.63
43503;BME280;29098;48.184;16.298;2023-01-16T00:27:05;98639.81;;;5.44;95.69
43503;BME280;29098;48.184;16.298;2023-01-16T00:29:30;98641.09;;;5.48;95.84
43503;BME280;29098;48.184;16.298;2023-01-16T00:31:55;98640.47;;;5.46;95.68
43503;BME280;29098;48.184;16.298;2023-01-16T00:34:21;98638.50;;;5.40;95.89
43503;BME280;29098;48.184;16.298;2023-01-16T00:36:46;98630.19;;;5.28;95.52
43503;BME280;29098;48.184;16.298;2023-01-16T00:39:11;98625.94;;;5.35;95.89
43503;BME280;29098;48.184;16.298;2023-01-16T00:41:36;98622.84;;;5.24;95.56
43503;BME280;29098;48.184;16.298;2023-01-16T00:44:02;98627.72;;;5.35;95.56
43503;BME280;29098;48.184;16.298;2023-01-16T00:46:28;98622.81;;;5.40;95.73
43503;BME280;29098;48.184;16.298;2023-01-16T00:48:54;98624.13;;;5.44;93.87
43503;BME280;29098;48.184;16.298;2023-01-16T00:51:20;98609.09;;;5.38;94.18
43503;BME280;29098;48.184;16.298;2023-01-16T00:53:46;98618.25;;;5.34;95.29
43503;BME280;29098;48.184;16.298;2023-01-16T00:56:11;98611.09;;;5.36;94.42
43503;BME280;29098;48.184;16.298;2023-01-16T00:58:37;98620.22;;;5.32;94.52
43503;BME280;29098;48.184;16.298;2023-01-16T01:01:02;98608.47;;;5.36;93.81
43503;BME280;29098;48.184;16.298;2023-01-16T01:03:28;98622.66;;;5.50;92.62
43503;BME280;29098;48.184;16.298;2023-01-16T01:05:53;98615.66;;;5.26;93.36
43503;BME280;29098;48.184;16.298;2023-01-16T01:08:19;98615.34;;;5.29;94.00
43503;BME280;29098;48.184;16.298;2023-01-16T01:10:44;98612.38;;;5.32;93.81
43503;BME280;29098;48.184;16.298;2023-01-16T01:13:09;98602.91;;;5.31;93.31
43503;BME280;29098;48.184;16.298;2023-01-16T01:15:35;98606.66;;;5.28;93.46
43503;BME280;29098;48.184;16.298;2023-01-16T01:18:01;98595.41;;;5.36;93.21
43503;BME280;29098;48.184;16.298;2023-01-16T01:20:26;98593.09;;;5.41;92.88
43503;BME280;29098;48.184;16.298;2023-01-16T01:22:51;98582.97;;;5.38;93.33
43503;BME280;29098;48.184;16.298;2023-01-16T01:25:17;98578.88;;;5.35;92.28
43503;BME280;29098;48.184;16.298;2023-01-16T01:27:42;98581.03;;;5.32;92.11
43503;BME280;29098;48.184;16.298;2023-01-16T01:30:08;98574.50;;;5.19;91.45
43503;BME280;29098;48.184;16.298;2023-01-16T01:32:33;98585.28;;;5.25;92.24
43503;BME280;29098;48.184;16.298;2023-01-16T01:35:01;98585.91;;;5.27;93.33
43503;BME280;29098;48.184;16.298;2023-01-16T01:37:27;98580.38;;;5.30;92.94
43503;BME280;29098;48.184;16.298;2023-01-16T01:39:52;98578.41;;;5.32;93.38
43503;BME280;29098;48.184;16.298;2023-01-16T01:42:18;98583.78;;;5.30;92.73
43503;BME280;29098;48.184;16.298;2023-01-16T01:48:04;98568.44;;;5.35;92.24
43503;BME280;29098;48.184;16.298;2023-01-16T01:50:41;98566.66;;;5.28;93.36
43503;BME280;29098;48.184;16.298;2023-01-16T01:53:12;98560.63;;;5.19;93.81
43503;BME280;29098;48.184;16.298;2023-01-16T01:55:38;98554.91;;;5.15;93.66
43503;BME280;29098;48.184;16.298;2023-01-16T01:58:05;98558.16;;;5.26;94.01
43503;BME280;29098;48.184;16.298;2023-01-16T02:00:30;98560.97;;;5.24;93.64
43503;BME280;29098;48.184;16.298;2023-01-16T02:03:02;98554.91;;;5.24;94.27
43503;BME280;29098;48.184;16.298;2023-01-16T02:05:30;98558.03;;;5.11;94.81
43503;BME280;29098;48.184;16.298;2023-01-16T02:07:57;98550.69;;;5.14;95.70
43503;BME280;29098;48.184;16.298;2023-01-16T02:13:07;98555.72;;;5.07;95.79
43503;BME280;29098;48.184;16.298;2023-01-16T02:15:33;98552.66;;;4.96;96.08
43503;BME280;29098;48.184;16.298;2023-01-16T02:17:58;98552.66;;;4.96;96.51
43503;BME280;29098;48.184;16.298;2023-01-16T02:23:16;98542.38;;;5.02;97.80
43503;BME280;29098;48.184;16.298;2023-01-16T02:36:16;98527.00;;;4.99;97.46
43503;BME280;29098;48.184;16.298;2023-01-16T02:43:54;98505.50;;;4.80;98.07
43503;BME280;29098;48.184;16.298;2023-01-16T02:46:24;98508.59;;;4.84;98.67
43503;BME280;29098;48.184;16.298;2023-01-16T02:48:59;98501.06;;;4.81;99.12
43503;BME280;29098;48.184;16.298;2023-01-16T02:51:38;98493.59;;;4.78;99.81
43503;BME280;29098;48.184;16.298;2023-01-16T02:56:52;98491.47;;;4.73;99.65
43503;BME280;29098;48.184;16.298;2023-01-16T02:59:21;98489.69;;;4.74;100.00
43503;BME280;29098;48.184;16.298;2023-01-16T03:01:48;98493.59;;;4.78;99.82
43503;BME280;29098;48.184;16.298;2023-01-16T03:12:29;98483.50;;;4.66;100.00
43503;BME280;29098;48.184;16.298;2023-01-16T03:15:03;98480.19;;;4.73;100.00
43503;BME280;29098;48.184;16.298;2023-01-16T03:20:36;98477.59;;;4.64;100.00
43503;BME280;29098;48.184;16.298;2023-01-16T03:23:09;98476.31;;;4.60;100.00
43503;BME280;29098;48.184;16.298;2023-01-16T03:30:40;98461.81;;;4.49;100.00
43503;BME280;29098;48.184;16.298;2023-01-16T03:33:55;98463.91;;;4.54;100.00
43503;BME280;29098;48.184;16.298;2023-01-16T03:35:56;98459.34;;;4.56;100.00
43503;BME280;29098;48.184;16.298;2023-01-16T03:38:23;98452.34;;;4.57;100.00
43503;BME280;29098;48.184;16.298;2023-01-16T03:40:49;98450.72;;;4.47;100.00
43503;BME280;29098;48.184;16.298;2023-01-16T03:43:49;98452.50;;;4.47;100.00
43503;BME280;29098;48.184;16.298;2023-01-16T03:46:17;98445.31;;;4.57;100.00
43503;BME280;29098;48.184;16.298;2023-01-16T03:48:59;98441.72;;;4.50;100.00
43503;BME280;29098;48.184;16.298;2023-01-16T03:51:27;98433.25;;;4.39;100.00
43503;BME280;29098;48.184;16.298;2023-01-16T03:54:00;98430.66;;;4.39;100.00
43503;BME280;29098;48.184;16.298;2023-01-16T03:56:29;98429.66;;;4.41;100.00
43503;BME280;29098;48.184;16.298;2023-01-16T03:58:55;98421.34;;;4.45;100.00
43503;BME280;29098;48.184;16.298;2023-01-16T04:03:53;98430.31;;;4.34;100.00
43503;BME280;29098;48.184;16.298;2023-01-16T04:06:32;98421.84;;;4.32;100.00
43503;BME280;29098;48.184;16.298;2023-01-16T04:08:57;98413.03;;;4.33;100.00
43503;BME280;29098;48.184;16.298;2023-01-16T04:11:24;98412.03;;;4.43;100.00
43503;BME280;29098;48.184;16.298;2023-01-16T04:13:51;98403.25;;;4.44;100.00
43503;BME280;29098;48.184;16.298;2023-01-16T04:16:18;98402.28;;;4.45;100.00
43503;BME280;29098;48.184;16.298;2023-01-16T04:18:45;98397.38;;;4.42;100.00
43503;BME280;29098;48.184;16.298;2023-01-16T04:21:11;98396.06;;;4.46;100.00
43503;BME280;29098;48.184;16.298;2023-01-16T04:23:37;98391.16;;;4.43;100.00
43503;BME280;29098;48.184;16.298;2023-01-16T04:26:02;98387.91;;;4.41;100.00
43503;BME280;29098;48.184;16.298;2023-01-16T04:28:28;98380.44;;;4.37;100.00
43503;BME280;29098;48.184;16.298;2023-01-16T04:30:53;98378.13;;;4.43;99.29
43503;BME280;29098;48.184;16.298;2023-01-16T04:33:18;98383.03;;;4.46;100.00
43503;BME280;29098;48.184;16.298;2023-01-16T04:35:44;98371.47;;;4.40;100.00
43503;BME280;29098;48.184;16.298;2023-01-16T04:38:09;98365.06;;;4.43;99.87
43503;BME280;29098;48.184;16.298;2023-01-16T04:40:34;98372.44;;;4.47;96.29
43503;BME280;29098;48.184;16.298;2023-01-16T04:43:00;98378.13;;;4.51;96.67
43503;BME280;29098;48.184;16.298;2023-01-16T04:45:25;98385.59;;;4.62;97.05
43503;BME280;29098;48.184;16.298;2023-01-16T04:47:51;98379.03;;;4.75;95.64
43503;BME280;29098;48.184;16.298;2023-01-16T04:50:16;98379.34;;;4.72;96.54
43503;BME280;29098;48.184;16.298;2023-01-16T04:52:42;98380.66;;;4.76;96.39
43503;BME280;29098;48.184;16.298;2023-01-16T04:55:08;98369.59;;;4.65;95.06
43503;BME280;29098;48.184;16.298;2023-01-16T04:57:33;98365.66;;;4.70;85.67
43503;BME280;29098;48.184;16.298;2023-01-16T04:59:59;98362.56;;;4.74;89.18
43503;BME280;29098;48.184;16.298;2023-01-16T05:02:24;98359.78;;;4.76;90.25
43503;BME280;29098;48.184;16.298;2023-01-16T05:04:50;98367.91;;;4.81;87.67
43503;BME280;29098;48.184;16.298;2023-01-16T05:07:15;98366.47;;;4.78;87.34
43503;BME280;29098;48.184;16.298;2023-01-16T05:09:40;98357.31;;;4.74;85.02
43503;BME280;29098;48.184;16.298;2023-01-16T05:12:06;98361.09;;;4.72;86.53
43503;BME280;29098;48.184;16.298;2023-01-16T05:14:31;98361.28;;;4.70;87.66
43503;BME280;29098;48.184;16.298;2023-01-16T05:16:56;98363.72;;;4.63;88.27
43503;BME280;29098;48.184;16.298;2023-01-16T05:19:22;98366.34;;;4.63;86.81
43503;BME280;29098;48.184;16.298;2023-01-16T05:21:47;98358.81;;;4.69;85.03
43503;BME280;29098;48.184;16.298;2023-01-16T05:24:12;98353.88;;;4.82;82.84
43503;BME280;29098;48.184;16.298;2023-01-16T05:26:38;98357.47;;;4.89;82.87
43503;BME280;29098;48.184;16.298;2023-01-16T05:29:03;98351.28;;;4.82;82.26
43503;BME280;29098;48.184;16.298;2023-01-16T05:31:28;98347.84;;;4.82;83.21
43503;BME280;29098;48.184;16.298;2023-01-16T05:33:54;98355.16;;;4.86;80.64
43503;BME280;29098;48.184;16.298;2023-01-16T05:36:19;98354.19;;;4.87;80.76
43503;BME280;29098;48.184;16.298;2023-01-16T05:38:44;98347.50;;;4.85;80.46
43503;BME280;29098;48.184;16.298;2023-01-16T05:41:11;98338.34;;;4.89;81.52
43503;BME280;29098;48.184;16.298;2023-01-16T05:43:36;98342.75;;;4.88;79.54
43503;BME280;29098;48.184;16.298;2023-01-16T05:46:02;98336.41;;;4.83;80.49
43503;BME280;29098;48.184;16.298;2023-01-16T05:48:28;98332.97;;;4.90;80.05
43503;BME280;29098;48.184;16.298;2023-01-16T05:50:55;98327.91;;;4.89;81.02
43503;BME280;29098;48.184;16.298;2023-01-16T05:53:20;98315.00;;;4.87;83.52
43503;BME280;29098;48.184;16.298;2023-01-16T05:55:46;98317.66;;;4.79;81.92
43503;BME280;29098;48.184;16.298;2023-01-16T05:58:12;98313.09;;;4.73;83.55
43503;BME280;29098;48.184;16.298;2023-01-16T06:00:38;98300.72;;;4.75;82.69
43503;BME280;29098;48.184;16.298;2023-01-16T06:03:04;98287.31;;;4.78;82.79
43503;BME280;29098;48.184;16.298;2023-01-16T06:05:29;98287.00;;;4.73;83.61
43503;BME280;29098;48.184;16.298;2023-01-16T06:07:55;98280.97;;;4.72;84.33
43503;BME280;29098;48.184;16.298;2023-01-16T06:10:23;98274.66;;;4.66;84.67
43503;BME280;29098;48.184;16.298;2023-01-16T06:12:48;98262.75;;;4.64;85.02
43503;BME280;29098;48.184;16.298;2023-01-16T06:15:14;98267.00;;;4.57;85.43
43503;BME280;29098;48.184;16.298;2023-01-16T06:17:39;98261.94;;;4.55;85.25
43503;BME280;29098;48.184;16.298;2023-01-16T06:20:05;98257.25;;;4.50;84.94
43503;BME280;29098;48.184;16.298;2023-01-16T06:22:30;98257.25;;;4.50;86.21
43503;BME280;29098;48.184;16.298;2023-01-16T06:24:56;98254.00;;;4.48;84.04
43503;BME280;29098;48.184;16.298;2023-01-16T06:27:21;98246.66;;;4.52;84.10
43503;BME280;29098;48.184;16.298;2023-01-16T06:29:46;98252.03;;;4.50;83.70
43503;BME280;29098;48.184;16.298;2023-01-16T06:32:11;98251.25;;;4.33;82.61
43503;BME280;29098;48.184;16.298;2023-01-16T06:34:37;98249.47;;;4.34;83.79
43503;BME280;29098;48.184;16.298;2023-01-16T06:37:05;98254.53;;;4.27;85.29
43503;BME280;29098;48.184;16.298;2023-01-16T06:39:32;98252.25;;;4.32;83.87
43503;BME280;29098;48.184;16.298;2023-01-16T06:41:57;98244.41;;;4.32;83.33
43503;BME280;29098;48.184;16.298;2023-01-16T06:44:22;98243.16;;;4.28;83.81
43503;BME280;29098;48.184;16.298;2023-01-16T06:46:47;98241.19;;;4.30;82.87
43503;BME280;29098;48.184;16.298;2023-01-16T06:49:13;98232.34;;;4.31;82.42
43503;BME280;29098;48.184;16.298;2023-01-16T06:51:38;98231.88;;;4.28;83.22
43503;BME280;29098;48.184;16.298;2023-01-16T06:54:03;98229.94;;;4.21;82.93
43503;BME280;29098;48.184;16.298;2023-01-16T06:56:29;98223.22;;;4.35;82.69
43503;BME280;29098;48.184;16.298;2023-01-16T06:58:54;98221.09;;;4.39;83.04
43503;BME280;29098;48.184;16.298;2023-01-16T07:01:20;98223.53;;;4.32;83.56
43503;BME280;29098;48.184;16.298;2023-01-16T07:03:45;98219.00;;;4.26;84.72
43503;BME280;29098;48.184;16.298;2023-01-16T07:06:10;98211.50;;;4.31;85.06
43503;BME280;29098;48.184;16.298;2023-01-16T07:08:38;98204.00;;;4.28;86.20
43503;BME280;29098;48.184;16.298;2023-01-16T07:11:03;98201.09;;;4.23;86.73
43503;BME280;29098;48.184;16.298;2023-01-16T07:13:28;98190.19;;;4.19;87.07
43503;BME280;29098;48.184;16.298;2023-01-16T07:15:54;98184.50;;;4.07;87.79
43503;BME280;29098;48.184;16.298;2023-01-16T07:18:58;98189.03;;;4.22;88.69
43503;BME280;29098;48.184;16.298;2023-01-16T07:21:43;98174.22;;;4.14;88.39
43503;BME280;29098;48.184;16.298;2023-01-16T07:24:28;98165.13;;;4.10;89.18
43503;BME280;29098;48.184;16.298;2023-01-16T07:26:55;98161.84;;;4.08;89.80
43503;BME280;29098;48.184;16.298;2023-01-16T07:29:25;98152.09;;;4.02;89.91
43503;BME280;29098;48.184;16.298;2023-01-16T07:31:51;98143.09;;;4.13;90.12
43503;BME280;29098;48.184;16.298;2023-01-16T07:34:16;98146.94;;;4.25;88.73
43503;BME280;29098;48.184;16.298;2023-01-16T07:36:42;98128.03;;;4.23;87.88
43503;BME280;29098;48.184;16.298;2023-01-16T07:39:07;98119.28;;;4.16;87.12
43503;BME280;29098;48.184;16.298;2023-01-16T07:41:32;98112.44;;;4.15;87.04
43503;BME280;29098;48.184;16.298;2023-01-16T07:43:58;98116.50;;;4.17;87.46
43503;BME280;29098;48.184;16.298;2023-01-16T07:46:23;98116.00;;;4.22;88.84
43503;BME280;29098;48.184;16.298;2023-01-16T07:48:48;98107.44;;;4.36;88.40
43503;BME280;29098;48.184;16.298;2023-01-16T07:51:16;98093.81;;;4.18;89.65
43503;BME280;29098;48.184;16.298;2023-01-16T07:53:41;98076.25;;;4.11;90.44
43503;BME280;29098;48.184;16.298;2023-01-16T07:56:07;98072.25;;;4.01;91.64
43503;BME280;29098;48.184;16.298;2023-01-16T07:58:32;98062.25;;;4.04;91.59
43503;BME280;29098;48.184;16.298;2023-01-16T08:00:57;98059.63;;;4.13;92.24
43503;BME280;29098;48.184;16.298;2023-01-16T08:03:23;98057.25;;;4.26;91.76
43503;BME280;29098;48.184;16.298;2023-01-16T08:05:49;98054.00;;;4.24;90.72
43503;BME280;29098;48.184;16.298;2023-01-16T08:08:15;98046.50;;;4.29;90.29
43503;BME280;29098;48.184;16.298;2023-01-16T08:10:41;98031.69;;;4.21;91.00
43503;BME280;29098;48.184;16.298;2023-01-16T08:13:06;98031.00;;;4.28;90.63
43503;BME280;29098;48.184;16.298;2023-01-16T08:15:31;98021.66;;;4.33;89.83
43503;BME280;29098;48.184;16.298;2023-01-16T08:17:57;98016.81;;;4.30;90.41
43503;BME280;29098;48.184;16.298;2023-01-16T08:20:22;98001.16;;;4.30;89.88
43503;BME280;29098;48.184;16.298;2023-01-16T08:22:49;98003.81;;;4.22;90.95
43503;BME280;29098;48.184;16.298;2023-01-16T08:25:18;97989.50;;;4.18;90.85
43503;BME280;29098;48.184;16.298;2023-01-16T08:27:44;97982.66;;;4.17;89.92
43503;BME280;29098;48.184;16.298;2023-01-16T08:30:10;97972.97;;;4.25;89.57
43503;BME280;29098;48.184;16.298;2023-01-16T08:32:35;97967.75;;;4.25;89.20
43503;BME280;29098;48.184;16.298;2023-01-16T08:35:01;97963.06;;;4.21;88.86
43503;BME280;29098;48.184;16.298;2023-01-16T08:37:29;97968.50;;;4.34;88.22
43503;BME280;29098;48.184;16.298;2023-01-16T08:39:54;97972.78;;;4.27;87.34
43503;BME280;29098;48.184;16.298;2023-01-16T08:42:19;97975.84;;;4.31;87.11
43503;BME280;29098;48.184;16.298;2023-01-16T08:45:03;97956.28;;;4.35;87.71
43503;BME280;29098;48.184;16.298;2023-01-16T08:47:47;97957.44;;;4.32;86.24
43503;BME280;29098;48.184;16.298;2023-01-16T08:50:31;97950.44;;;4.48;85.97
43503;BME280;29098;48.184;16.298;2023-01-16T08:53:15;97949.38;;;4.57;83.87
43503;BME280;29098;48.184;16.298;2023-01-16T08:55:40;97945.69;;;4.51;84.99
43503;BME280;29098;48.184;16.298;2023-01-16T08:58:05;97955.50;;;4.64;84.22
43503;BME280;29098;48.184;16.298;2023-01-16T09:00:31;97938.69;;;4.67;84.02
43503;BME280;29098;48.184;16.298;2023-01-16T09:02:56;97936.00;;;4.75;83.85
43503;BME280;29098;48.184;16.298;2023-01-16T09:05:24;97923.69;;;4.84;82.78
43503;BME280;29098;48.184;16.298;2023-01-16T09:07:49;97925.47;;;4.84;83.35
43503;BME280;29098;48.184;16.298;2023-01-16T09:10:15;97919.25;;;5.00;84.22
43503;BME280;29098;48.184;16.298;2023-01-16T09:12:40;97922.56;;;5.24;84.87
43503;BME280;29098;48.184;16.298;2023-01-16T09:15:25;97921.69;;;5.16;82.59
43503;BME280;29098;48.184;16.298;2023-01-16T09:17:50;97918.00;;;4.96;82.88
43503;BME280;29098;48.184;16.298;2023-01-16T09:20:16;97905.13;;;4.94;83.10
43503;BME280;29098;48.184;16.298;2023-01-16T09:22:41;97902.97;;;4.83;84.12
43503;BME280;29098;48.184;16.298;2023-01-16T09:25:07;97897.66;;;4.91;84.11
43503;BME280;29098;48.184;16.298;2023-01-16T09:27:32;97894.16;;;4.69;84.99
43503;BME280;29098;48.184;16.298;2023-01-16T09:29:58;97895.03;;;4.76;85.36
43503;BME280;29098;48.184;16.298;2023-01-16T09:32:24;97892.53;;;4.68;85.67
43503;BME280;29098;48.184;16.298;2023-01-16T09:34:49;97888.00;;;4.61;85.90
43503;BME280;29098;48.184;16.298;2023-01-16T09:37:15;97883.69;;;4.69;86.97
43503;BME280;29098;48.184;16.298;2023-01-16T09:39:40;97882.44;;;4.79;86.34
43503;BME280;29098;48.184;16.298;2023-01-16T09:42:20;97873.59;;;4.65;86.17
43503;BME280;29098;48.184;16.298;2023-01-16T09:45:06;97883.34;;;4.72;86.50
43503;BME280;29098;48.184;16.298;2023-01-16T09:47:33;97871.38;;;4.62;87.43
43503;BME280;29098;48.184;16.298;2023-01-16T09:50:11;97864.63;;;4.53;85.96
43503;BME280;29098;48.184;16.298;2023-01-16T09:52:38;97850.28;;;4.49;87.66
43503;BME280;29098;48.184;16.298;2023-01-16T09:55:26;97850.19;;;4.57;88.11
43503;BME280;29098;48.184;16.298;2023-01-16T09:58:14;97839.94;;;4.71;87.07
43503;BME280;29098;48.184;16.298;2023-01-16T10:03:38;97822.13;;;4.89;86.91
43503;BME280;29098;48.184;16.298;2023-01-16T10:08:48;97813.53;;;4.96;86.71
43503;BME280;29098;48.184;16.298;2023-01-16T10:13:55;97807.22;;;5.27;85.44
43503;BME280;29098;48.184;16.298;2023-01-16T10:24:29;97775.63;;;5.65;80.19
43503;BME280;29098;48.184;16.298;2023-01-16T10:26:58;97771.28;;;5.51;79.76
43503;BME280;29098;48.184;16.298;2023-01-16T10:34:25;97763.47;;;5.29;81.61
43503;BME280;29098;48.184;16.298;2023-01-16T10:36:54;97761.06;;;5.34;81.02
43503;BME280;29098;48.184;16.298;2023-01-16T10:39:22;97747.41;;;5.32;81.08
43503;BME280;29098;48.184;16.298;2023-01-16T10:41:50;97740.38;;;5.32;81.25
43503;BME280;29098;48.184;16.298;2023-01-16T10:44:40;97733.97;;;5.13;81.70
43503;BME280;29098;48.184;16.298;2023-01-16T10:47:27;97727.34;;;4.96;80.22
43503;BME280;29098;48.184;16.298;2023-01-16T10:50:12;97724.13;;;4.93;82.04
43503;BME280;29098;48.184;16.298;2023-01-16T10:52:38;97719.59;;;5.02;82.51
43503;BME280;29098;48.184;16.298;2023-01-16T10:55:04;97705.28;;;4.98;82.56
43503;BME280;29098;48.184;16.298;2023-01-16T10:57:30;97693.50;;;5.02;83.93
43503;BME280;29098;48.184;16.298;2023-01-16T10:59:57;97683.22;;;5.01;84.00
43503;BME280;29098;48.184;16.298;2023-01-16T11:02:29;97679.34;;;4.97;84.73
43503;BME280;29098;48.184;16.298;2023-01-16T11:04:55;97673.91;;;5.13;84.54
43503;BME280;29098;48.184;16.298;2023-01-16T11:07:20;97667.78;;;5.28;84.18
43503;BME280;29098;48.184;16.298;2023-01-16T11:09:46;97654.50;;;5.29;82.53
43503;BME280;29098;48.184;16.298;2023-01-16T11:12:17;97636.75;;;5.18;82.35
43503;BME280;29098;48.184;16.298;2023-01-16T11:15:04;97646.06;;;5.27;82.17
43503;BME280;29098;48.184;16.298;2023-01-16T11:17:52;97630.59;;;5.04;82.50
43503;BME280;29098;48.184;16.298;2023-01-16T11:20:36;97623.13;;;5.23;82.25
43503;BME280;29098;48.184;16.298;2023-01-16T11:25:38;97610.06;;;5.58;81.73
43503;BME280;29098;48.184;16.298;2023-01-16T11:28:05;97606.41;;;5.45;81.96
43503;BME280;29098;48.184;16.298;2023-01-16T11:30:32;97599.34;;;5.46;81.84
43503;BME280;29098;48.184;16.298;2023-01-16T11:32:58;97586.84;;;5.76;80.86
43503;BME280;29098;48.184;16.298;2023-01-16T11:35:31;97578.94;;;6.05;79.25
43503;BME280;29098;48.184;16.298;2023-01-16T11:37:57;97580.31;;;6.01;80.10
43503;BME280;29098;48.184;16.298;2023-01-16T11:40:24;97570.41;;;5.89;80.21
43503;BME280;29098;48.184;16.298;2023-01-16T11:42:54;97564.00;;;5.50;81.83
43503;BME280;29098;48.184;16.298;2023-01-16T11:45:39;97567.41;;;5.15;84.11
43503;BME280;29098;48.184;16.298;2023-01-16T11:48:25;97548.50;;;5.13;83.63
43503;BME280;29098;48.184;16.298;2023-01-16T11:50:51;97561.84;;;4.97;84.56
43503;BME280;29098;48.184;16.298;2023-01-16T11:53:17;97542.72;;;4.89;84.98
43503;BME280;29098;48.184;16.298;2023-01-16T11:55:49;97531.66;;;4.87;85.61
43503;BME280;29098;48.184;16.298;2023-01-16T11:58:36;97536.81;;;4.80;86.36
43503;BME280;29098;48.184;16.298;2023-01-16T12:01:09;97523.25;;;4.92;86.79
43503;BME280;29098;48.184;16.298;2023-01-16T12:11:01;97484.97;;;4.77;89.80
43503;BME280;29098;48.184;16.298;2023-01-16T12:24:12;97443.72;;;4.94;90.11
43503;BME280;29098;48.184;16.298;2023-01-16T12:26:46;97447.25;;;4.80;90.26
43503;BME280;29098;48.184;16.298;2023-01-16T12:29:30;97439.56;;;4.72;90.75
43503;BME280;29098;48.184;16.298;2023-01-16T12:39:28;97417.88;;;4.43;92.72
43503;BME280;29098;48.184;16.298;2023-01-16T12:44:45;97401.84;;;4.39;93.21
43503;BME280;29098;48.184;16.298;2023-01-16T12:49:55;97390.03;;;4.50;92.78
43503;BME280;29098;48.184;16.298;2023-01-16T12:55:07;97380.16;;;4.45;93.24
43503;BME280;29098;48.184;16.298;2023-01-16T13:02:35;97355.09;;;4.44;94.34
43503;BME280;29098;48.184;16.298;2023-01-16T13:05:03;97351.59;;;4.30;93.66
43503;BME280;29098;48.184;16.298;2023-01-16T13:07:31;97335.06;;;4.51;96.56
43503;BME280;29098;48.184;16.298;2023-01-16T13:10:04;97336.94;;;4.64;92.41
43503;BME280;29098;48.184;16.298;2023-01-16T13:12:55;97334.41;;;4.85;92.89
43503;BME280;29098;48.184;16.298;2023-01-16T13:15:41;97332.84;;;4.97;93.45
43503;BME280;29098;48.184;16.298;2023-01-16T13:18:17;97330.34;;;4.69;91.91
43503;BME280;29098;48.184;16.298;2023-01-16T13:20:45;97323.84;;;5.00;92.29
43503;BME280;29098;48.184;16.298;2023-01-16T13:23:14;97316.81;;;5.07;91.78
43503;BME280;29098;48.184;16.298;2023-01-16T13:25:42;97309.97;;;4.99;90.79
43503;BME280;29098;48.184;16.298;2023-01-16T13:30:36;97290.81;;;4.78;93.70
43503;BME280;29098;48.184;16.298;2023-01-16T13:33:03;97295.66;;;4.82;92.14
43503;BME280;29098;48.184;16.298;2023-01-16T13:43:27;97289.00;;;4.79;92.67
43503;BME280;29098;48.184;16.298;2023-01-16T13:46:13;97282.88;;;4.58;93.82
43503;BME280;29098;48.184;16.298;2023-01-16T13:48:38;97282.63;;;4.39;95.72
43503;BME280;29098;48.184;16.298;2023-01-16T13:51:14;97279.25;;;4.46;95.20
43503;BME280;29098;48.184;16.298;2023-01-16T13:53:40;97268.34;;;4.35;95.78
43503;BME280;29098;48.184;16.298;2023-01-16T13:56:13;97253.06;;;4.25;96.46
43503;BME280;29098;48.184;16.298;2023-01-16T13:58:44;97245.81;;;4.21;96.86
43503;BME280;29098;48.184;16.298;2023-01-16T14:06:42;97231.09;;;4.06;98.32
43503;BME280;29098;48.184;16.298;2023-01-16T14:09:13;97231.69;;;4.08;98.27
43503;BME280;29098;48.184;16.298;2023-01-16T14:14:29;97223.31;;;3.84;99.67
43503;BME280;29098;48.184;16.298;2023-01-16T14:17:14;97214.50;;;3.86;100.00
43503;BME280;29098;48.184;16.298;2023-01-16T14:19:59;97206.09;;;3.83;100.00
43503;BME280;29098;48.184;16.298;2023-01-16T14:22:26;97199.88;;;3.84;100.00
43503;BME280;29098;48.184;16.298;2023-01-16T14:24:57;97196.44;;;3.84;100.00
43503;BME280;29098;48.184;16.298;2023-01-16T14:27:31;97188.22;;;3.80;100.00
43503;BME280;29098;48.184;16.298;2023-01-16T14:29:59;97192.28;;;3.90;100.00
43503;BME280;29098;48.184;16.298;2023-01-16T14:32:27;97185.22;;;3.83;100.00
43503;BME280;29098;48.184;16.298;2023-01-16T14:34:55;97174.97;;;3.75;100.00
43503;BME280;29098;48.184;16.298;2023-01-16T14:39:48;97166.66;;;3.65;100.00
43503;BME280;29098;48.184;16.298;2023-01-16T14:42:36;97166.06;;;3.63;100.00
43503;BME280;29098;48.184;16.298;2023-01-16T14:45:28;97150.53;;;3.48;100.00
43503;BME280;29098;48.184;16.298;2023-01-16T14:53:56;97141.81;;;3.34;100.00
43503;BME280;29098;48.184;16.298;2023-01-16T14:56:41;97140.91;;;3.48;100.00
43503;BME280;29098;48.184;16.298;2023-01-16T14:59:07;97140.91;;;3.48;100.00
43503;BME280;29098;48.184;16.298;2023-01-16T15:01:39;97131.41;;;3.62;100.00
43503;BME280;29098;48.184;16.298;2023-01-16T15:04:23;97126.81;;;3.71;100.00
43503;BME280;29098;48.184;16.298;2023-01-16T15:06:58;97102.66;;;3.49;100.00
43503;BME280;29098;48.184;16.298;2023-01-16T15:09:26;97110.22;;;3.43;100.00
43503;BME280;29098;48.184;16.298;2023-01-16T15:12:06;97112.16;;;3.35;100.00
43503;BME280;29098;48.184;16.298;2023-01-16T15:14:34;97103.00;;;3.39;100.00
43503;BME280;29098;48.184;16.298;2023-01-16T15:17:02;97100.72;;;3.29;100.00
43503;BME280;29098;48.184;16.298;2023-01-16T15:20:00;97095.97;;;3.11;100.00
43503;BME280;29098;48.184;16.298;2023-01-16T15:22:45;97099.50;;;3.25;100.00